Time;durP1;ratioP1;P1;durP2;ratioP2;P2;SDS_P1;SDS_P2;PMS_P1;PMS_P2;Temp;Humidity;BMP_temperature;BMP_pressure;BME280_temperature;BME280_humidity;BME280_pressure;Samples;Min_cycle;Max_cycle;Signal;HPM_P1;HPM_P2
2024/03/30 00:01:47;;;;;;;2.92;1.13;;;10.30;99.90;;;;;;4974187;28;20057;-88
2024/03/30 00:04:13;;;;;;;4.78;1.20;;;10.30;99.90;;;;;;4978226;28;20523;-87
2024/03/30 00:06:39;;;;;;;1.75;0.90;;;10.20;99.90;;;;;;4988151;28;20026;-86
2024/03/30 00:09:04;;;;;;;3.28;1.02;;;10.20;99.90;;;;;;4991998;28;20109;-88
2024/03/30 00:11:30;;;;;;;2.80;1.13;;;10.20;99.90;;;;;;4975814;28;20034;-87
2024/03/30 00:13:56;;;;;;;2.05;1.27;;;10.20;99.90;;;;;;4977839;28;20092;-88
2024/03/30 00:16:21;;;;;;;5.75;1.33;;;10.00;99.90;;;;;;4995817;28;20045;-89
2024/03/30 00:18:48;;;;;;;1.23;0.80;;;10.20;99.90;;;;;;4975161;28;20026;-87
2024/03/30 00:21:17;;;;;;;1.52;1.10;;;10.10;99.90;;;;;;5005175;28;20380;-84
2024/03/30 00:23:42;;;;;;;1.17;1.05;;;10.10;99.90;;;;;;4993199;28;20031;-88
2024/03/30 00:26:08;;;;;;;1.45;1.10;;;10.10;99.90;;;;;;4975762;28;20028;-87
2024/03/30 00:28:34;;;;;;;1.70;1.02;;;10.10;99.90;;;;;;4989688;28;20062;-87
2024/03/30 00:30:59;;;;;;;1.25;0.90;;;10.10;99.90;;;;;;4995961;28;20448;-86
2024/03/30 00:33:25;;;;;;;1.00;0.80;;;10.10;99.90;;;;;;4977479;28;20030;-85
2024/03/30 00:35:54;;;;;;;1.90;0.98;;;10.10;99.90;;;;;;4973888;28;20400;-88
2024/03/30 00:38:19;;;;;;;0.50;0.50;;;10.10;99.90;;;;;;4975150;28;20051;-87
2024/03/30 00:40:45;;;;;;;0.90;0.70;;;10.20;99.90;;;;;;4992305;28;20030;-85
2024/03/30 00:43:11;;;;;;;0.60;0.60;;;10.10;99.90;;;;;;4973058;28;20023;-87
2024/03/30 00:45:38;;;;;;;0.77;0.63;;;10.20;99.90;;;;;;4957993;28;20038;-88
2024/03/30 00:48:04;;;;;;;1.20;1.10;;;10.30;99.90;;;;;;4975368;28;20080;-88
2024/03/30 00:50:30;;;;;;;3.35;2.00;;;10.20;99.90;;;;;;4957913;28;20027;-86
2024/03/30 00:52:55;;;;;;;0.57;0.55;;;10.10;99.90;;;;;;4986298;28;20535;-88
2024/03/30 00:55:21;;;;;;;0.90;0.70;;;10.10;99.90;;;;;;4973176;28;20521;-87
2024/03/30 00:57:46;;;;;;;2.70;1.23;;;10.10;99.90;;;;;;4988451;28;20031;-87
2024/03/30 01:00:15;;;;;;;1.30;1.20;;;10.00;99.90;;;;;;4972902;28;20030;-88
2024/03/30 01:02:42;;;;;;;1.38;1.10;;;10.00;99.90;;;;;;4993847;28;20033;-87
2024/03/30 01:05:08;;;;;;;1.27;1.13;;;10.00;99.90;;;;;;4991625;28;20161;-87
2024/03/30 01:07:33;;;;;;;1.52;0.95;;;10.00;99.90;;;;;;4976721;28;20030;-85
2024/03/30 01:09:59;;;;;;;0.90;0.90;;;10.00;99.90;;;;;;4955372;28;20062;-88
2024/03/30 01:12:25;;;;;;;1.10;1.00;;;10.00;99.90;;;;;;4970315;28;20042;-88
2024/03/30 01:14:52;;;;;;;1.27;0.98;;;10.00;99.90;;;;;;4968694;28;20448;-87
2024/03/30 01:17:19;;;;;;;1.92;1.23;;;10.00;99.90;;;;;;4983543;28;20092;-88
2024/03/30 01:19:45;;;;;;;1.48;1.27;;;10.00;99.90;;;;;;4965243;28;20035;-82
2024/03/30 01:22:12;;;;;;;1.60;1.13;;;10.00;99.90;;;;;;4974008;28;20056;-85
2024/03/30 01:24:37;;;;;;;1.50;1.20;;;9.90;99.90;;;;;;4969943;28;20034;-87
2024/03/30 01:27:07;;;;;;;2.38;1.17;;;9.90;99.90;;;;;;4957623;28;20499;-87
2024/03/30 01:29:32;;;;;;;1.67;1.17;;;9.90;99.90;;;;;;4974371;28;20116;-88
2024/03/30 01:31:58;;;;;;;1.48;1.33;;;9.80;99.90;;;;;;4971010;28;20329;-88
2024/03/30 01:34:24;;;;;;;1.95;1.20;;;9.80;99.90;;;;;;4983959;28;20081;-88
2024/03/30 01:36:49;;;;;;;3.67;1.30;;;9.70;99.90;;;;;;4968934;28;20034;-88
2024/03/30 01:39:15;;;;;;;2.10;1.40;;;9.70;99.90;;;;;;4973516;28;20034;-87
2024/03/30 01:41:40;;;;;;;2.05;1.73;;;9.70;99.90;;;;;;4976738;28;20100;-86
2024/03/30 01:44:06;;;;;;;2.15;1.45;;;9.60;99.90;;;;;;4988735;28;20491;-88
2024/03/30 01:46:32;;;;;;;2.35;1.65;;;9.60;99.90;;;;;;4985038;28;20089;-88
2024/03/30 01:48:58;;;;;;;1.75;1.48;;;9.60;99.90;;;;;;4969984;28;20061;-86
2024/03/30 01:51:24;;;;;;;1.80;1.40;;;9.50;99.90;;;;;;4969554;28;20514;-88
2024/03/30 01:53:50;;;;;;;1.77;1.63;;;9.50;99.90;;;;;;4955315;28;20031;-87
2024/03/30 01:56:15;;;;;;;2.05;1.23;;;9.50;99.90;;;;;;4989130;28;20018;-87
2024/03/30 01:58:41;;;;;;;1.02;0.93;;;9.50;99.90;;;;;;4969546;28;20105;-88
2024/03/30 02:01:06;;;;;;;2.83;1.58;;;9.50;99.90;;;;;;4989084;28;20066;-87
2024/03/30 02:03:32;;;;;;;2.55;1.83;;;9.40;99.90;;;;;;4955855;28;20038;-88
2024/03/30 02:05:57;;;;;;;2.97;1.60;;;9.30;99.90;;;;;;4946898;28;20077;-87
2024/03/30 02:08:23;;;;;;;1.42;1.17;;;9.30;99.90;;;;;;4968980;28;20034;-86
2024/03/30 02:10:49;;;;;;;2.13;1.42;;;9.20;99.90;;;;;;4972786;28;20142;-89
2024/03/30 02:13:14;;;;;;;2.90;2.03;;;9.30;99.90;;;;;;4957405;28;20518;-88
2024/03/30 02:15:40;;;;;;;2.55;1.55;;;9.20;99.90;;;;;;4968802;28;20492;-90
2024/03/30 02:18:06;;;;;;;1.50;1.35;;;9.10;99.90;;;;;;4968015;28;20034;-89
2024/03/30 02:20:31;;;;;;;4.50;1.67;;;9.10;99.90;;;;;;4963280;28;20451;-88
2024/03/30 02:22:57;;;;;;;1.85;1.40;;;9.20;99.90;;;;;;4985137;28;20117;-87
2024/03/30 02:25:22;;;;;;;2.10;1.73;;;9.20;99.90;;;;;;4971130;28;20072;-88
2024/03/30 02:27:48;;;;;;;3.65;1.52;;;9.20;99.90;;;;;;4970717;28;20030;-86
2024/03/30 02:30:24;;;;;;;2.35;1.27;;;9.20;99.90;;;;;;4957106;28;20034;-87
2024/03/30 02:32:50;;;;;;;3.65;1.58;;;9.20;99.90;;;;;;4979680;28;20031;-88
2024/03/30 02:35:16;;;;;;;3.30;2.47;;;9.20;99.90;;;;;;4973592;28;20045;-86
2024/03/30 02:37:41;;;;;;;4.22;2.05;;;9.10;99.90;;;;;;4984554;28;20030;-89
2024/03/30 02:40:07;;;;;;;2.55;1.70;;;9.20;99.90;;;;;;4985813;28;20504;-89
2024/03/30 02:42:34;;;;;;;2.47;2.10;;;9.10;99.90;;;;;;4965730;28;20575;-86
2024/03/30 02:44:59;;;;;;;2.58;1.95;;;9.10;99.90;;;;;;4971597;28;20034;-89
2024/03/30 02:47:25;;;;;;;2.75;2.05;;;9.10;99.90;;;;;;4971007;28;20052;-88
2024/03/30 02:49:50;;;;;;;4.22;1.88;;;9.10;99.90;;;;;;4967899;28;20034;-87
2024/03/30 02:52:16;;;;;;;5.20;2.20;;;9.10;99.90;;;;;;4974360;28;20117;-86
2024/03/30 02:54:42;;;;;;;2.95;2.03;;;9.10;99.90;;;;;;4974587;28;20048;-90
2024/03/30 02:57:07;;;;;;;4.53;2.70;;;9.00;99.90;;;;;;4986401;28;20035;-90
2024/03/30 02:59:33;;;;;;;3.15;2.03;;;9.00;99.90;;;;;;4985843;28;20259;-88
2024/03/30 03:01:59;;;;;;;3.53;2.10;;;9.00;99.90;;;;;;4973939;28;20054;-90
2024/03/30 03:04:25;;;;;;;2.38;2.08;;;9.00;99.90;;;;;;4992895;28;20038;-89
2024/03/30 03:06:50;;;;;;;2.25;2.05;;;9.00;99.90;;;;;;4978080;28;20026;-89
2024/03/30 03:09:16;;;;;;;3.80;2.10;;;9.00;99.90;;;;;;4979742;28;20110;-86
2024/03/30 03:11:42;;;;;;;2.17;1.98;;;8.90;99.90;;;;;;4978254;28;20058;-89
2024/03/30 03:14:07;;;;;;;2.42;2.08;;;8.90;99.90;;;;;;4966248;28;20022;-87
2024/03/30 03:16:34;;;;;;;3.10;2.53;;;8.90;99.90;;;;;;4993629;28;20038;-89
2024/03/30 03:18:59;;;;;;;4.18;2.20;;;8.90;99.90;;;;;;4982793;28;20034;-91
2024/03/30 03:21:25;;;;;;;5.97;2.33;;;8.90;99.90;;;;;;4965669;28;20480;-87
2024/03/30 03:23:51;;;;;;;3.20;2.40;;;8.90;99.90;;;;;;4979631;28;20026;-90
2024/03/30 03:26:16;;;;;;;3.47;2.40;;;8.90;99.90;;;;;;4993485;28;20034;-89
2024/03/30 03:28:42;;;;;;;3.63;2.58;;;8.90;99.90;;;;;;4976993;28;20558;-90
2024/03/30 03:31:07;;;;;;;5.28;2.60;;;8.90;99.90;;;;;;4994792;28;20037;-90
2024/03/30 03:33:33;;;;;;;3.95;2.90;;;8.90;99.90;;;;;;4996952;28;20094;-90
2024/03/30 03:36:00;;;;;;;3.40;3.10;;;8.90;99.90;;;;;;4982175;28;20042;-88
2024/03/30 03:38:26;;;;;;;3.53;2.65;;;8.90;99.90;;;;;;4966859;28;20052;-90
2024/03/30 03:40:53;;;;;;;4.65;3.03;;;8.90;99.90;;;;;;4995929;28;20131;-85
2024/03/30 03:43:19;;;;;;;3.55;2.90;;;8.90;99.90;;;;;;4983446;28;20531;-88
2024/03/30 03:45:48;;;;;;;3.35;2.95;;;8.90;99.90;;;;;;4985871;28;20022;-89
2024/03/30 03:48:13;;;;;;;6.05;3.70;;;8.90;99.90;;;;;;4982074;28;20392;-90
2024/03/30 03:50:40;;;;;;;3.33;2.72;;;8.90;99.90;;;;;;4980266;28;20046;-89
2024/03/30 03:53:06;;;;;;;5.13;3.60;;;8.80;99.90;;;;;;5001860;28;20046;-89
2024/03/30 03:55:32;;;;;;;4.70;3.55;;;8.80;99.90;;;;;;4983824;28;20046;-89
2024/03/30 03:57:57;;;;;;;6.88;3.55;;;8.70;99.90;;;;;;4994436;28;20471;-89
2024/03/30 04:00:24;;;;;;;6.65;3.85;;;8.70;99.90;;;;;;4982510;28;20114;-88
2024/03/30 04:02:50;;;;;;;4.88;2.95;;;8.70;99.90;;;;;;4999416;28;20073;-86
2024/03/30 04:05:15;;;;;;;6.25;3.58;;;8.70;99.90;;;;;;4978124;28;20034;-90
2024/03/30 04:07:41;;;;;;;4.55;3.13;;;8.70;99.90;;;;;;4995771;28;20037;-90
2024/03/30 04:10:15;;;;;;;6.65;3.90;;;8.60;99.90;;;;;;4998109;28;20122;-90
2024/03/30 04:12:40;;;;;;;4.13;3.20;;;8.70;99.90;;;;;;4971771;28;20045;-89
2024/03/30 04:15:06;;;;;;;3.70;3.38;;;8.60;99.90;;;;;;4974302;28;20028;-90
2024/03/30 04:17:33;;;;;;;4.40;3.13;;;8.50;99.90;;;;;;4970315;28;20031;-80
2024/03/30 04:19:59;;;;;;;4.07;3.33;;;8.50;99.90;;;;;;4971934;28;20494;-80
2024/03/30 04:22:24;;;;;;;8.85;4.18;;;8.50;99.90;;;;;;4973024;28;20038;-80
2024/03/30 04:24:50;;;;;;;6.45;3.75;;;8.60;99.90;;;;;;4977034;28;20034;-79
2024/03/30 04:27:16;;;;;;;4.22;3.53;;;8.60;99.90;;;;;;4973622;28;21525;-80
2024/03/30 04:29:41;;;;;;;4.90;3.70;;;8.50;99.90;;;;;;4958991;28;20595;-79
2024/03/30 04:32:07;;;;;;;5.18;4.28;;;8.40;99.90;;;;;;4972825;28;20133;-80
2024/03/30 04:34:32;;;;;;;4.15;3.75;;;8.50;99.90;;;;;;4972354;28;20039;-80
2024/03/30 04:36:58;;;;;;;4.72;4.15;;;8.50;99.90;;;;;;4972931;28;20026;-79
2024/03/30 04:39:24;;;;;;;9.10;4.50;;;8.50;99.90;;;;;;4985273;28;20381;-80
2024/03/30 04:41:49;;;;;;;4.25;3.35;;;8.40;99.90;;;;;;4965867;28;20023;-79
2024/03/30 04:44:15;;;;;;;5.30;4.20;;;8.40;99.90;;;;;;4973114;28;20027;-80
2024/03/30 04:46:41;;;;;;;4.63;3.83;;;8.40;99.90;;;;;;5004197;28;20068;-81
2024/03/30 04:49:06;;;;;;;5.95;3.78;;;8.40;99.90;;;;;;4987439;28;20018;-79
2024/03/30 04:51:32;;;;;;;4.05;3.58;;;8.30;99.90;;;;;;4987724;28;20041;-79
2024/03/30 04:53:57;;;;;;;5.82;4.13;;;8.40;99.90;;;;;;4987735;28;20027;-79
2024/03/30 04:56:24;;;;;;;4.72;3.85;;;8.30;99.90;;;;;;4986081;28;20041;-79
2024/03/30 04:58:49;;;;;;;4.68;4.22;;;8.30;99.90;;;;;;4990525;28;20076;-79
2024/03/30 05:01:16;;;;;;;7.20;4.75;;;8.30;99.90;;;;;;4974473;28;20034;-79
2024/03/30 05:03:48;;;;;;;6.00;4.40;;;8.30;99.90;;;;;;4959449;28;20030;-79
2024/03/30 05:06:14;;;;;;;5.15;4.30;;;8.30;99.90;;;;;;4955423;28;20023;-79
2024/03/30 05:08:39;;;;;;;5.10;4.00;;;8.30;99.90;;;;;;4970672;28;20041;-79
2024/03/30 05:11:05;;;;;;;5.63;4.57;;;8.30;99.90;;;;;;4973471;28;20034;-80
2024/03/30 05:13:30;;;;;;;5.05;4.28;;;8.30;99.90;;;;;;4960099;28;20050;-79
2024/03/30 05:15:56;;;;;;;6.43;4.68;;;8.30;99.90;;;;;;4987321;28;20365;-79
2024/03/30 05:18:22;;;;;;;5.78;4.45;;;8.30;99.90;;;;;;4972400;28;20034;-80
2024/03/30 05:21:00;;;;;;;5.53;5.03;;;8.30;99.90;;;;;;4971259;28;21185;-79
2024/03/30 05:23:35;;;;;;;5.63;4.65;;;8.30;99.90;;;;;;4973147;28;20489;-80
2024/03/30 05:26:07;;;;;;;5.85;4.72;;;8.30;99.90;;;;;;4974120;28;20054;-80
2024/03/30 05:28:34;;;;;;;4.70;4.22;;;8.30;99.90;;;;;;4973944;28;20027;-79
2024/03/30 05:31:04;;;;;;;6.82;4.97;;;8.30;99.90;;;;;;4976657;28;20444;-79
2024/03/30 05:33:30;;;;;;;5.90;4.18;;;8.30;99.90;;;;;;4985051;28;20431;-79
2024/03/30 05:35:55;;;;;;;8.18;4.55;;;8.30;99.90;;;;;;4974913;28;20030;-80
2024/03/30 05:38:21;;;;;;;5.40;4.32;;;8.30;99.90;;;;;;4977028;28;20475;-79
2024/03/30 05:40:47;;;;;;;6.63;4.20;;;8.40;99.90;;;;;;4971084;28;20037;-79
2024/03/30 05:43:13;;;;;;;5.88;4.50;;;8.30;99.90;;;;;;4976128;28;20050;-80
2024/03/30 05:45:40;;;;;;;4.63;4.13;;;8.30;99.90;;;;;;4986036;28;20030;-80
2024/03/30 05:48:06;;;;;;;5.30;4.63;;;8.40;99.90;;;;;;4955705;28;20034;-79
2024/03/30 05:50:32;;;;;;;6.00;4.35;;;8.40;99.90;;;;;;4958588;28;20081;-79
2024/03/30 05:52:57;;;;;;;6.25;3.78;;;8.40;99.90;;;;;;4972648;28;20034;-79
2024/03/30 05:55:23;;;;;;;4.20;3.65;;;8.50;99.90;;;;;;4974551;28;20057;-79
2024/03/30 05:57:49;;;;;;;4.32;3.92;;;8.50;99.90;;;;;;4974939;28;20494;-79
2024/03/30 06:00:14;;;;;;;4.60;4.07;;;8.50;99.90;;;;;;4989380;28;20505;-80
2024/03/30 06:02:43;;;;;;;6.40;5.47;;;8.50;99.90;;;;;;4957606;28;20062;-79
2024/03/30 06:05:09;;;;;;;7.43;5.60;;;8.50;99.90;;;;;;4974911;28;20100;-80
2024/03/30 06:07:35;;;;;;;5.88;5.03;;;8.50;99.90;;;;;;4990582;28;20035;-80
2024/03/30 06:10:01;;;;;;;6.57;5.35;;;8.50;99.90;;;;;;4988765;28;20121;-79
2024/03/30 06:12:27;;;;;;;9.20;5.28;;;8.40;99.90;;;;;;4971217;28;20045;-80
2024/03/30 06:14:52;;;;;;;6.65;4.93;;;8.40;99.90;;;;;;4971232;28;20030;-79
2024/03/30 06:17:18;;;;;;;7.93;5.25;;;8.40;99.90;;;;;;4973229;28;20033;-79
2024/03/30 06:19:43;;;;;;;3.05;2.53;;;8.40;99.90;;;;;;4957856;28;20026;-79
2024/03/30 06:22:09;;;;;;;4.97;3.70;;;8.60;99.90;;;;;;4957178;28;20588;-80
2024/03/30 06:24:39;;;;;;;6.15;5.28;;;8.60;99.90;;;;;;4987260;28;20038;-78
2024/03/30 06:27:07;;;;;;;6.88;5.57;;;8.70;99.90;;;;;;4971902;28;20022;-79
2024/03/30 06:29:34;;;;;;;5.93;4.78;;;8.70;99.90;;;;;;4972424;28;20113;-80
2024/03/30 06:31:59;;;;;;;9.57;6.55;;;8.80;99.90;;;;;;4962728;28;20035;-79
2024/03/30 06:34:25;;;;;;;9.52;5.53;;;8.80;99.90;;;;;;4968714;28;20042;-79
2024/03/30 06:36:50;;;;;;;8.95;6.07;;;8.80;99.90;;;;;;4987084;28;20031;-79
2024/03/30 06:39:16;;;;;;;7.85;5.78;;;8.80;99.90;;;;;;4969736;28;20100;-80
2024/03/30 06:44:26;;;;;;;6.70;5.47;;;9.00;99.90;;;;;;4982661;28;20046;-79
2024/03/30 06:46:51;;;;;;;9.32;6.43;;;9.00;99.90;;;;;;4967508;28;20399;-80
2024/03/30 06:49:17;;;;;;;8.82;6.80;;;9.10;99.90;;;;;;4957420;28;20026;-81
2024/03/30 06:51:42;;;;;;;11.20;7.00;;;9.20;99.90;;;;;;4971515;28;20125;-79
2024/03/30 06:54:08;;;;;;;9.23;7.90;;;9.20;99.90;;;;;;4975192;28;20164;-80
2024/03/30 06:56:33;;;;;;;10.52;8.52;;;9.30;99.90;;;;;;4992879;28;20069;-79
2024/03/30 06:58:59;;;;;;;10.27;7.60;;;9.40;99.90;;;;;;4973679;28;20023;-80
2024/03/30 07:01:27;;;;;;;9.98;7.28;;;9.50;99.90;;;;;;4970712;28;20043;-80
2024/03/30 07:03:53;;;;;;;12.13;8.35;;;9.50;99.90;;;;;;4953436;28;20480;-80
2024/03/30 07:06:18;;;;;;;12.65;8.25;;;9.60;99.90;;;;;;4954374;28;20090;-79
2024/03/30 07:08:44;;;;;;;10.00;8.15;;;9.70;99.90;;;;;;4971407;28;20054;-80
2024/03/30 07:11:10;;;;;;;12.02;8.38;;;9.80;99.90;;;;;;4982272;28;20050;-78
2024/03/30 07:13:35;;;;;;;10.40;8.68;;;9.80;99.90;;;;;;4986082;28;20029;-79
2024/03/30 07:16:01;;;;;;;11.57;9.25;;;10.00;99.90;;;;;;4964759;28;20054;-81
2024/03/30 07:18:26;;;;;;;11.43;8.27;;;10.00;99.90;;;;;;4983450;28;20038;-80
2024/03/30 07:20:52;;;;;;;6.63;5.15;;;10.00;99.90;;;;;;4965954;28;20601;-80
2024/03/30 07:23:17;;;;;;;12.88;8.57;;;10.10;99.90;;;;;;4953217;28;20042;-79
2024/03/30 07:25:43;;;;;;;7.88;5.18;;;10.20;99.90;;;;;;4966126;28;20094;-80
2024/03/30 07:28:09;;;;;;;4.07;3.60;;;10.20;99.90;;;;;;4957278;28;20038;-79
2024/03/30 07:30:38;;;;;;;4.80;3.67;;;10.30;99.90;;;;;;4986882;28;20042;-78
2024/03/30 07:33:05;;;;;;;6.70;4.85;;;10.30;99.90;;;;;;4969059;28;20035;-78
2024/03/30 07:35:32;;;;;;;7.82;4.82;;;10.40;99.90;;;;;;4984983;28;20054;-80
2024/03/30 07:37:58;;;;;;;3.38;2.67;;;10.40;99.90;;;;;;4974137;28;20041;-80
2024/03/30 07:40:23;;;;;;;3.13;2.83;;;10.40;99.90;;;;;;4970785;28;20389;-80
2024/03/30 07:42:49;;;;;;;7.88;5.55;;;10.40;99.90;;;;;;4951216;28;20037;-79
2024/03/30 07:45:17;;;;;;;7.15;4.82;;;10.40;99.90;;;;;;4969680;28;20030;-80
2024/03/30 07:47:42;;;;;;;15.23;6.80;;;10.50;99.90;;;;;;4954728;28;20043;-79
2024/03/30 07:50:08;;;;;;;10.23;7.43;;;10.50;99.90;;;;;;4970135;28;20064;-78
2024/03/30 07:52:33;;;;;;;4.80;3.65;;;10.50;99.90;;;;;;4972427;28;20058;-78
2024/03/30 07:54:59;;;;;;;6.10;5.45;;;10.60;99.90;;;;;;4954523;28;20044;-79
2024/03/30 07:57:29;;;;;;;10.52;7.55;;;10.50;99.90;;;;;;4974365;28;20034;-78
2024/03/30 07:59:54;;;;;;;3.92;3.45;;;10.50;99.90;;;;;;4975317;28;20041;-78
2024/03/30 08:02:20;;;;;;;9.43;5.97;;;10.50;99.90;;;;;;4957371;28;20034;-78
2024/03/30 08:04:45;;;;;;;8.32;5.30;;;10.60;99.90;;;;;;5003534;28;20129;-79
2024/03/30 08:07:13;;;;;;;10.82;7.95;;;10.60;99.90;;;;;;4992618;28;20060;-78
2024/03/30 08:09:38;;;;;;;9.02;7.55;;;10.70;99.90;;;;;;4989946;28;20044;-80
2024/03/30 08:12:04;;;;;;;6.93;6.22;;;10.70;99.90;;;;;;4992371;28;20109;-79
2024/03/30 08:14:30;;;;;;;10.25;7.60;;;10.80;99.90;;;;;;5009915;28;20105;-79
2024/03/30 08:16:55;;;;;;;12.30;7.50;;;10.80;99.90;;;;;;4991636;28;20497;-80
2024/03/30 08:19:21;;;;;;;11.23;8.27;;;10.80;99.90;;;;;;4961219;28;20088;-78
2024/03/30 08:21:47;;;;;;;12.65;7.88;;;10.90;99.90;;;;;;4992047;28;20026;-78
2024/03/30 08:24:12;;;;;;;11.15;8.35;;;11.00;99.90;;;;;;5008141;28;20030;-78
2024/03/30 08:26:38;;;;;;;10.30;9.25;;;11.10;99.90;;;;;;5006733;28;20022;-79
2024/03/30 08:29:03;;;;;;;12.23;8.50;;;11.10;99.90;;;;;;4991068;28;20038;-78
2024/03/30 08:31:29;;;;;;;11.52;7.95;;;11.20;99.90;;;;;;4956962;28;20826;-79
2024/03/30 08:33:56;;;;;;;13.75;9.40;;;11.30;99.90;;;;;;4974084;28;20031;-79
2024/03/30 08:36:22;;;;;;;11.75;8.02;;;11.40;99.90;;;;;;4970119;28;20117;-79
2024/03/30 08:38:47;;;;;;;10.93;7.88;;;11.60;99.90;;;;;;4985984;28;20039;-78
2024/03/30 08:41:13;;;;;;;13.32;10.18;;;11.70;99.90;;;;;;4973295;28;20041;-78
2024/03/30 08:43:38;;;;;;;11.20;7.35;;;11.90;99.90;;;;;;4987285;28;20035;-77
2024/03/30 08:46:05;;;;;;;17.85;7.15;;;12.20;99.90;;;;;;4987214;28;20026;-77
2024/03/30 08:48:34;;;;;;;12.98;6.75;;;12.30;99.90;;;;;;4971230;28;20034;-78
2024/03/30 08:51:00;;;;;;;10.20;5.63;;;12.40;99.90;;;;;;4970519;28;20042;-78
2024/03/30 08:53:26;;;;;;;8.77;5.22;;;12.50;99.90;;;;;;4987009;28;20064;-77
2024/03/30 08:56:01;;;;;;;11.52;4.93;;;12.60;99.90;;;;;;4983472;28;20035;-78
2024/03/30 08:58:27;;;;;;;13.48;4.82;;;12.80;99.90;;;;;;4969057;28;20034;-78
2024/03/30 09:00:52;;;;;;;7.03;3.83;;;13.00;99.90;;;;;;4962250;28;20041;-78
2024/03/30 09:03:18;;;;;;;6.78;4.32;;;13.10;99.90;;;;;;4985198;28;20035;-77
2024/03/30 09:05:46;;;;;;;8.57;3.60;;;13.30;99.90;;;;;;4984787;28;20721;-78
2024/03/30 09:08:12;;;;;;;9.60;3.38;;;13.40;99.90;;;;;;4955235;28;20026;-78
2024/03/30 09:10:37;;;;;;;9.70;3.03;;;13.60;99.90;;;;;;4970091;28;20538;-78
2024/03/30 09:13:03;;;;;;;12.52;2.58;;;13.80;99.90;;;;;;4964914;28;20114;-79
2024/03/30 09:15:29;;;;;;;11.63;2.40;;;13.80;99.90;;;;;;4961993;28;20133;-78
2024/03/30 09:17:55;;;;;;;14.75;2.88;;;14.00;99.90;;;;;;4955731;28;20034;-78
2024/03/30 09:20:21;;;;;;;6.80;2.42;;;14.20;99.90;;;;;;4967155;28;20503;-78
2024/03/30 09:22:46;;;;;;;13.98;2.38;;;14.20;99.90;;;;;;4982308;28;20026;-78
2024/03/30 09:25:15;;;;;;;7.95;2.33;;;14.40;99.90;;;;;;4971759;28;20030;-78
2024/03/30 09:27:41;;;;;;;5.38;1.45;;;14.60;99.90;;;;;;4968455;28;20069;-78
2024/03/30 09:30:10;;;;;;;2.80;1.77;;;14.70;99.90;;;;;;4972036;28;20058;-78
2024/03/30 09:32:36;;;;;;;10.13;1.77;;;14.70;99.90;;;;;;4972053;28;20036;-78
2024/03/30 09:35:02;;;;;;;12.05;1.92;;;15.00;99.90;;;;;;4955489;28;20423;-78
2024/03/30 09:37:28;;;;;;;4.47;1.55;;;15.40;99.90;;;;;;4959396;28;20117;-78
2024/03/30 09:39:53;;;;;;;11.82;2.95;;;15.60;99.90;;;;;;4983219;28;20137;-78
2024/03/30 09:42:35;;;;;;;25.25;3.40;;;15.80;99.90;;;;;;4966677;28;20092;-77
2024/03/30 09:45:01;;;;;;;22.80;2.92;;;16.10;99.90;;;;;;4983435;28;20488;-78
2024/03/30 09:47:26;;;;;;;11.07;2.00;;;16.30;99.90;;;;;;4969492;28;20113;-78
2024/03/30 09:49:52;;;;;;;22.85;3.05;;;16.40;99.90;;;;;;4984177;28;20030;-78
2024/03/30 09:52:22;;;;;;;21.45;2.90;;;16.50;99.90;;;;;;4985554;28;20069;-77
2024/03/30 09:54:53;;;;;;;27.80;3.95;;;16.70;99.90;;;;;;4970868;28;20161;-78
2024/03/30 09:57:19;;;;;;;25.75;3.05;;;16.80;99.90;;;;;;4968839;28;20030;-78
2024/03/30 09:59:44;;;;;;;26.23;3.42;;;16.90;99.90;;;;;;4974479;28;20030;-78
2024/03/30 10:02:11;;;;;;;21.92;2.90;;;16.80;99.90;;;;;;5003029;28;20487;-79
2024/03/30 10:04:36;;;;;;;24.17;3.78;;;16.90;99.90;;;;;;4996189;28;20071;-79
2024/03/30 10:07:04;;;;;;;35.58;3.80;;;17.00;99.90;;;;;;4975294;28;20492;-79
2024/03/30 10:09:29;;;;;;;30.90;4.78;;;17.00;99.90;;;;;;4978990;28;20496;-78
2024/03/30 10:12:12;;;;;;;34.38;3.03;;;17.10;99.90;;;;;;5005831;28;20037;-79
2024/03/30 10:14:43;;;;;;;19.90;2.25;;;17.00;99.90;;;;;;4985693;28;20041;-78
2024/03/30 10:17:10;;;;;;;31.90;3.70;;;17.10;99.90;;;;;;4969168;28;20082;-79
2024/03/30 10:19:36;;;;;;;24.02;3.92;;;17.30;99.90;;;;;;4961939;28;20092;-78
2024/03/30 10:22:02;;;;;;;45.22;6.57;;;17.40;99.90;;;;;;4971504;28;20466;-79
2024/03/30 10:24:28;;;;;;;28.50;3.60;;;17.50;99.90;;;;;;4974557;28;20037;-79
2024/03/30 10:26:53;;;;;;;36.70;5.95;;;17.40;99.90;;;;;;4971442;28;20038;-79
2024/03/30 10:29:19;;;;;;;31.85;3.92;;;17.60;99.90;;;;;;4970502;28;20040;-79
2024/03/30 10:31:45;;;;;;;41.90;4.30;;;17.70;99.90;;;;;;4983483;28;20692;-80
2024/03/30 10:34:10;;;;;;;39.55;4.93;;;17.70;99.90;;;;;;4954137;28;20042;-80
2024/03/30 10:36:39;;;;;;;33.08;4.95;;;17.80;99.80;;;;;;4956648;28;20718;-79
2024/03/30 10:39:04;;;;;;;25.17;4.55;;;17.90;98.70;;;;;;4956985;28;20026;-79
2024/03/30 10:41:30;;;;;;;29.55;3.58;;;17.90;99.20;;;;;;4985807;28;20038;-80
2024/03/30 10:43:56;;;;;;;31.02;5.40;;;17.90;98.80;;;;;;4986794;28;20034;-81
2024/03/30 10:46:25;;;;;;;32.33;4.70;;;18.00;98.30;;;;;;4969283;28;20031;-80
2024/03/30 10:48:51;;;;;;;40.95;4.63;;;18.10;97.50;;;;;;4981851;28;20676;-81
2024/03/30 10:51:17;;;;;;;27.35;4.03;;;18.10;97.50;;;;;;4971830;28;20689;-81
2024/03/30 10:53:43;;;;;;;42.70;3.97;;;18.10;97.60;;;;;;4967468;28;20030;-81
2024/03/30 10:56:09;;;;;;;29.23;3.88;;;18.10;97.10;;;;;;4983490;28;20056;-81
2024/03/30 10:58:34;;;;;;;30.70;3.58;;;18.00;96.30;;;;;;4972648;28;20034;-80
2024/03/30 11:01:00;;;;;;;32.60;4.57;;;18.00;95.60;;;;;;4973882;28;20029;-81
2024/03/30 11:03:25;;;;;;;29.08;4.38;;;18.00;96.80;;;;;;4984133;28;20039;-80
2024/03/30 11:05:54;;;;;;;32.67;4.40;;;18.00;95.90;;;;;;4972071;28;20034;-82
2024/03/30 11:08:19;;;;;;;34.05;3.72;;;17.90;95.50;;;;;;4952663;28;20108;-80
2024/03/30 11:10:45;;;;;;;34.80;3.75;;;17.90;96.80;;;;;;4970802;28;20479;-81
2024/03/30 11:13:10;;;;;;;32.45;5.25;;;17.90;96.30;;;;;;4972324;28;20038;-81
2024/03/30 11:15:42;;;;;;;30.70;4.53;;;17.90;94.60;;;;;;4955339;28;20412;-81
2024/03/30 11:18:15;;;;;;;32.20;5.75;;;17.90;95.00;;;;;;4969144;28;20679;-82
2024/03/30 11:21:03;;;;;;;28.55;3.63;;;17.90;94.60;;;;;;4987250;28;20780;-81
2024/03/30 11:23:41;;;;;;;47.75;6.60;;;17.80;94.80;;;;;;4970515;28;20045;-82
2024/03/30 11:26:10;;;;;;;36.70;3.85;;;17.70;95.20;;;;;;4971345;28;20018;-81
2024/03/30 11:28:48;;;;;;;25.27;3.65;;;17.60;94.50;;;;;;4974743;28;20121;-81
2024/03/30 11:31:27;;;;;;;44.10;5.32;;;17.60;94.60;;;;;;4987229;28;20096;-81
2024/03/30 11:33:55;;;;;;;61.30;5.40;;;17.60;94.10;;;;;;4955558;28;20026;-80
2024/03/30 11:36:45;;;;;;;33.85;5.38;;;17.60;94.60;;;;;;4989841;28;20400;-80
2024/03/30 11:39:22;;;;;;;38.50;5.75;;;17.60;94.90;;;;;;4954124;28;20073;-81
2024/03/30 11:41:51;;;;;;;35.42;4.10;;;17.60;95.00;;;;;;4969861;28;20370;-82
2024/03/30 11:44:18;;;;;;;28.48;4.50;;;17.50;94.90;;;;;;4957129;28;20386;-81
2024/03/30 11:46:44;;;;;;;33.60;4.07;;;17.40;94.80;;;;;;4986270;28;20037;-81
2024/03/30 11:49:09;;;;;;;36.45;4.80;;;17.40;95.10;;;;;;4973174;28;20034;-81
2024/03/30 11:51:39;;;;;;;35.25;4.57;;;17.60;95.30;;;;;;4991429;28;20074;-81
2024/03/30 11:54:23;;;;;;;39.58;6.80;;;17.50;95.40;;;;;;4967948;28;20065;-81
2024/03/30 11:56:55;;;;;;;36.35;4.45;;;17.40;95.10;;;;;;4973875;28;20493;-81
2024/03/30 11:59:20;;;;;;;29.02;2.85;;;17.40;95.70;;;;;;4990987;28;20045;-81
2024/03/30 12:01:46;;;;;;;21.20;4.05;;;17.30;95.00;;;;;;4975247;28;20078;-81
2024/03/30 12:04:12;;;;;;;38.92;5.50;;;17.40;95.40;;;;;;4972687;28;20575;-82
2024/03/30 12:06:38;;;;;;;28.17;3.92;;;17.30;96.00;;;;;;4974010;28;20472;-81
2024/03/30 12:09:03;;;;;;;32.53;4.32;;;17.40;96.10;;;;;;4976111;28;20026;-81
2024/03/30 12:11:29;;;;;;;31.42;3.97;;;17.30;96.00;;;;;;4971228;28;20057;-83
2024/03/30 12:13:55;;;;;;;28.10;3.78;;;17.30;96.00;;;;;;4968265;28;20045;-81
2024/03/30 12:16:21;;;;;;;24.30;3.30;;;17.30;95.80;;;;;;4970523;28;20062;-79
2024/03/30 12:18:46;;;;;;;28.10;3.20;;;17.30;96.10;;;;;;4976105;28;20496;-79
2024/03/30 12:21:12;;;;;;;28.80;3.72;;;17.40;96.70;;;;;;4985475;28;20739;-80
2024/03/30 12:23:38;;;;;;;33.42;6.03;;;17.40;96.50;;;;;;4958927;28;20037;-79
2024/03/30 12:26:03;;;;;;;20.17;3.08;;;17.40;96.10;;;;;;4957530;28;20065;-79
2024/03/30 12:28:29;;;;;;;41.03;4.53;;;17.30;96.00;;;;;;4968101;28;20037;-78
2024/03/30 12:30:56;;;;;;;36.63;4.07;;;17.40;96.20;;;;;;4977373;28;20426;-80
2024/03/30 12:33:25;;;;;;;43.75;5.28;;;17.40;95.30;;;;;;4986916;28;20042;-79
2024/03/30 12:35:50;;;;;;;15.60;3.60;;;17.50;95.40;;;;;;4968863;28;20504;-79
2024/03/30 12:38:17;;;;;;;35.38;4.18;;;17.30;95.20;;;;;;4955166;28;20039;-79
2024/03/30 12:40:43;;;;;;;25.73;3.80;;;17.20;95.70;;;;;;4623982;28;10000938;-80
2024/03/30 12:43:11;;;;;;;15.63;3.72;;;17.30;95.50;;;;;;4638669;28;10000440;-79
2024/03/30 12:45:37;;;;;;;28.52;3.05;;;17.30;95.20;;;;;;4967170;28;20484;-80
2024/03/30 12:48:03;;;;;;;29.63;3.92;;;17.20;95.20;;;;;;4984983;28;20038;-80